Independence — WDD6659 — position and weather

sailwx.info

Track history (hours):
 
Tides and Currents Weather Stations Pressure Air Temp Water Temp Dewpoint Dewpoint Depression Visibility Wind Speed Wind Dir Waves Ship Positions

Independence

Owner: Sortwell, Inc. DBA AmNav Maritime Services, Oakland, CA. More information available from US FCC via Universal Licensing System and Coast Guard Vessel Documentation Center.

Last reported at 2016-Jun-25 15:33 UTC. Time now 2016-Jun-25 19:45 UTC.
Position N 33°45' W 118°17'.

; draft 4.9 m.

Type: Tug. MMSI: 367175860.

Date/timePositionNaut miles runAvg speedWind from/ knotsBaromVisibWave heightAir tempDewpointWater temp
2016-Jun-25 15:33N 33°45' W 118°17'3 3.2
2016-Jun-25 14:31N 33°43' W 118°13'2 1.5
2016-Jun-25 13:06N 33°44' W 118°16'1 1.4
2016-Jun-25 12:33N 33°44' W 118°15'1 0.6
2016-Jun-25 11:34N 33°44' W 118°15'1 0.1
2016-Jun-25 02:33N 33°43' W 118°16'3 3.0
2016-Jun-25 01:33N 33°46' W 118°17'0 0.0
2016-Jun-25 00:32N 33°46' W 118°17'4 0.4
2016-Jun-24 14:27N 33°43' W 118°14'3 2.8
2016-Jun-24 13:33N 33°42' W 118°11'1 0.6
2016-Jun-24 12:19N 33°43' W 118°10'4 4.8
2016-Jun-24 11:33N 33°45' W 118°13'1 1.2
2016-Jun-24 10:33N 33°44' W 118°13'0 0.5
2016-Jun-24 09:34N 33°44' W 118°12'3 3.3
2016-Jun-24 08:31N 33°45' W 118°17'1 1.0
2016-Jun-24 07:34N 33°46' W 118°16'0 0.2
2016-Jun-24 04:33N 33°46' W 118°16'3 2.8
2016-Jun-24 03:25N 33°43' W 118°15'0 0.3
2016-Jun-24 02:33N 33°43' W 118°15'3 3.2
2016-Jun-24 01:33N 33°46' W 118°13'1 0.7
2016-Jun-24 00:34N 33°46' W 118°14'3 2.5
2016-Jun-23 23:33N 33°44' W 118°14'2 0.1
2016-Jun-23 02:12N 33°44' W 118°17'2 2.4
2016-Jun-23 01:33N 33°45' W 118°16'0 0.4
2016-Jun-23 00:33N 33°46' W 118°16'0 0.3
2016-Jun-22 23:33N 33°46' W 118°17'0 0.0
2016-Jun-22 22:33N 33°46' W 118°17'0 0.0
2016-Jun-22 21:33N 33°46' W 118°17'0 0.0
2016-Jun-22 20:34N 33°46' W 118°17'0 0.0
2016-Jun-22 19:33N 33°46' W 118°17'0 0.0
2016-Jun-22 18:34N 33°46' W 118°17'0 0.0
2016-Jun-22 17:33N 33°46' W 118°17'0 0.0
2016-Jun-22 16:33N 33°46' W 118°17'0 0.0
2016-Jun-22 15:33N 33°46' W 118°17'4 3.6
2016-Jun-22 14:33N 33°45' W 118°13'2 1.6
2016-Jun-22 13:32N 33°43' W 118°11'1 0.8
2016-Jun-22 12:33N 33°44' W 118°11'1 0.7
2016-Jun-22 11:33N 33°44' W 118°12'2 1.9
2016-Jun-22 10:33N 33°45' W 118°13'0 0.0
2016-Jun-22 09:33N 33°45' W 118°13'0 0.0
2016-Jun-22 08:33N 33°45' W 118°13'0 0.0
2016-Jun-22 07:33N 33°45' W 118°13'0 0.4
2016-Jun-22 06:33N 33°45' W 118°13'3 3.3
2016-Jun-22 05:31N 33°43' W 118°16'0 0.1
2016-Jun-22 02:25N 33°43' W 118°16'1 0.7
2016-Jun-22 01:33N 33°44' W 118°15'1 0.6
2016-Jun-22 00:09N 33°44' W 118°17'1 1.9
2016-Jun-21 23:27N 33°45' W 118°16'3 2.6
2016-Jun-21 22:24N 33°43' W 118°15'1 1.5
2016-Jun-21 21:29N 33°43' W 118°16'0 0.0
2016-Jun-21 12:32N 33°44' W 118°17'2 0.7
2016-Jun-21 09:33N 33°44' W 118°14'2 2.0
2016-Jun-21 08:33N 33°45' W 118°13'2 2.4
2016-Jun-21 07:33N 33°44' W 118°11'3 1.5
2016-Jun-21 05:33N 33°46' W 118°13'0 0.4
2016-Jun-21 04:33N 33°46' W 118°13'3 2.8
2016-Jun-21 03:33N 33°44' W 118°11'4 4.2
2016-Jun-21 02:33N 33°44' W 118°17'3 2.5
2016-Jun-21 01:33N 33°45' W 118°14'2 2.2
2016-Jun-21 00:33N 33°43' W 118°15'1 0.8
2016-Jun-20 23:34N 33°43' W 118°14'3 2.7
2016-Jun-20 22:33N 33°46' W 118°14'2 2.0
2016-Jun-20 21:33N 33°44' W 118°13'1 0.9
2016-Jun-20 20:33N 33°43' W 118°12'3 3.4
2016-Jun-20 19:34N 33°44' W 118°17'0 0.0
2016-Jun-20 18:34N 33°44' W 118°17'0 0.0
2016-Jun-20 17:34N 33°44' W 118°16'0 0.0
2016-Jun-20 16:33N 33°44' W 118°17'0 0.0
2016-Jun-20 15:33N 33°44' W 118°17'0 0.0
2016-Jun-20 14:34N 33°44' W 118°17'0 0.0
2016-Jun-20 13:32N 33°44' W 118°17'2 1.8
2016-Jun-20 12:33N 33°46' W 118°16'2 1.9
2016-Jun-20 11:33N 33°44' W 118°16'2 1.7
2016-Jun-20 10:33N 33°43' W 118°14'2 1.8
2016-Jun-20 09:32N 33°44' W 118°17'0 0.0
2016-Jun-20 07:31N 33°44' W 118°17'0 0.0
2016-Jun-20 04:13N 33°44' W 118°17'0 0.0
2016-Jun-20 03:31N 33°44' W 118°17'0 0.0
2016-Jun-20 02:15N 33°44' W 118°17'0 0.0
2016-Jun-20 01:29N 33°44' W 118°17'0 0.0
2016-Jun-20 00:33N 33°44' W 118°17'0 0.0
2016-Jun-19 23:31N 33°44' W 118°17'0 0.0
2016-Jun-19 22:33N 33°44' W 118°17'4 4.4
2016-Jun-19 21:33N 33°44' W 118°11'1 1.0
2016-Jun-19 20:33N 33°44' W 118°12'3 0.6
2016-Jun-19 15:10N 33°44' W 118°17'0 0.0
2016-Jun-19 14:27N 33°44' W 118°17'0 0.0
2016-Jun-19 08:29N 33°44' W 118°17'0 0.0
2016-Jun-19 07:31N 33°44' W 118°17'0 0.0
2016-Jun-19 06:33N 33°44' W 118°17'0 0.0
2016-Jun-19 02:31N 33°44' W 118°17'3 2.9
2016-Jun-19 01:23N 33°45' W 118°13'1 0.6
2016-Jun-19 00:33N 33°45' W 118°12'3 3.4
2016-Jun-18 23:34N 33°43' W 118°16'0 0.4
2016-Jun-18 22:33N 33°44' W 118°17'0 0.0
2016-Jun-18 21:33N 33°44' W 118°17'1 1.4
2016-Jun-18 20:33N 33°45' W 118°16'0 0.5
2016-Jun-18 19:33N 33°45' W 118°16'1 0.9
2016-Jun-18 18:33N 33°44' W 118°17'0 0.0
2016-Jun-18 17:33N 33°44' W 118°17'0 0.0
2016-Jun-18 16:33N 33°44' W 118°17'0 0.0
2016-Jun-18 15:33N 33°44' W 118°17'0 0.0
2016-Jun-18 14:31N 33°44' W 118°17'0 0.1
2016-Jun-18 13:33N 33°44' W 118°16'0 0.1
2016-Jun-18 12:21N 33°44' W 118°17'0 0.0
2016-Jun-18 11:16N 33°44' W 118°17'0 0.0
2016-Jun-18 10:33N 33°44' W 118°17'0 0.0
2016-Jun-18 09:30N 33°44' W 118°17'0 0.0
2016-Jun-18 05:33N 33°44' W 118°17'0 0.0
2016-Jun-18 04:33N 33°44' W 118°17'0 0.0
2016-Jun-18 03:33N 33°44' W 118°17'0 0.0
2016-Jun-18 02:33N 33°44' W 118°17'0 0.0
2016-Jun-18 01:04N 33°44' W 118°17'0 0.0
2016-Jun-18 00:29N 33°44' W 118°17'0 0.0
2016-Jun-17 23:12N 33°44' W 118°17'0 0.0
2016-Jun-17 22:33N 33°44' W 118°17'0 0.0
2016-Jun-17 21:33N 33°44' W 118°17'0 0.0
2016-Jun-17 20:33N 33°44' W 118°17'0 0.0
2016-Jun-17 19:34N 33°44' W 118°17'0 0.0
2016-Jun-17 18:33N 33°44' W 118°17'0 0.1
2016-Jun-17 13:33N 33°43' W 118°16'2 2.0
2016-Jun-17 12:32N 33°42' W 118°15'2 0.4
2016-Jun-17 06:10N 33°44' W 118°17'0 0.0
2016-Jun-17 02:31N 33°44' W 118°17'1 0.8
2016-Jun-17 01:33N 33°43' W 118°16'0 0.1
2016-Jun-17 00:33N 33°43' W 118°16'2 1.7
2016-Jun-16 23:33N 33°45' W 118°16'0 0.3
2016-Jun-16 22:33N 33°45' W 118°16'1 0.1
2016-Jun-16 16:27N 33°44' W 118°17'0 0.0
2016-Jun-16 15:12N 33°44' W 118°17'3 1.5
2016-Jun-16 13:30N 33°44' W 118°13'1 1.5
2016-Jun-16 12:33N 33°44' W 118°12'2 1.7
2016-Jun-16 11:33N 33°43' W 118°14'1 0.1
2016-Jun-15 23:12N 33°43' W 118°15'2 3.7
2016-Jun-15 22:33N 33°45' W 118°14'3 3.2
2016-Jun-15 21:33N 33°43' W 118°11'3 3.1
2016-Jun-15 20:31N 33°43' W 118°15'1 0.3
2016-Jun-15 18:33N 33°43' W 118°14'3 2.8
2016-Jun-15 17:33N 33°46' W 118°16'0 0.2
2016-Jun-15 16:33N 33°46' W 118°16'  
Track history (hours):
 
Tides and Currents Weather Stations Pressure Air Temp Water Temp Dewpoint Dewpoint Depression Visibility Wind Speed Wind Dir Waves Ship Positions

Independence

Owner: Sortwell, Inc. DBA AmNav Maritime Services, Oakland, CA. More information available from US FCC via Universal Licensing System and Coast Guard Vessel Documentation Center.

Last reported at 2016-Jun-25 15:33 UTC. Time now 2016-Jun-25 19:45 UTC.
Position N 33°45' W 118°17'.

; draft 4.9 m.

Type: Tug. MMSI: 367175860.

Date/timePositionNaut miles runAvg speedWind from/ knotsBaromVisibWave heightAir tempDewpointWater temp
2016-Jun-25 15:33N 33°45' W 118°17'3 3.2
2016-Jun-25 14:31N 33°43' W 118°13'2 1.5
2016-Jun-25 13:06N 33°44' W 118°16'1 1.4
2016-Jun-25 12:33N 33°44' W 118°15'1 0.6
2016-Jun-25 11:34N 33°44' W 118°15'1 0.1
2016-Jun-25 02:33N 33°43' W 118°16'3 3.0
2016-Jun-25 01:33N 33°46' W 118°17'0 0.0
2016-Jun-25 00:32N 33°46' W 118°17'4 0.4
2016-Jun-24 14:27N 33°43' W 118°14'3 2.8
2016-Jun-24 13:33N 33°42' W 118°11'1 0.6
2016-Jun-24 12:19N 33°43' W 118°10'4 4.8
2016-Jun-24 11:33N 33°45' W 118°13'1 1.2
2016-Jun-24 10:33N 33°44' W 118°13'0 0.5
2016-Jun-24 09:34N 33°44' W 118°12'3 3.3
2016-Jun-24 08:31N 33°45' W 118°17'1 1.0
2016-Jun-24 07:34N 33°46' W 118°16'0 0.2
2016-Jun-24 04:33N 33°46' W 118°16'3 2.8
2016-Jun-24 03:25N 33°43' W 118°15'0 0.3
2016-Jun-24 02:33N 33°43' W 118°15'3 3.2
2016-Jun-24 01:33N 33°46' W 118°13'1 0.7
2016-Jun-24 00:34N 33°46' W 118°14'3 2.5
2016-Jun-23 23:33N 33°44' W 118°14'2 0.1
2016-Jun-23 02:12N 33°44' W 118°17'2 2.4
2016-Jun-23 01:33N 33°45' W 118°16'0 0.4
2016-Jun-23 00:33N 33°46' W 118°16'0 0.3
2016-Jun-22 23:33N 33°46' W 118°17'0 0.0
2016-Jun-22 22:33N 33°46' W 118°17'0 0.0
2016-Jun-22 21:33N 33°46' W 118°17'0 0.0
2016-Jun-22 20:34N 33°46' W 118°17'0 0.0
2016-Jun-22 19:33N 33°46' W 118°17'0 0.0
2016-Jun-22 18:34N 33°46' W 118°17'0 0.0
2016-Jun-22 17:33N 33°46' W 118°17'0 0.0
2016-Jun-22 16:33N 33°46' W 118°17'0 0.0
2016-Jun-22 15:33N 33°46' W 118°17'4 3.6
2016-Jun-22 14:33N 33°45' W 118°13'2 1.6
2016-Jun-22 13:32N 33°43' W 118°11'1 0.8
2016-Jun-22 12:33N 33°44' W 118°11'1 0.7
2016-Jun-22 11:33N 33°44' W 118°12'2 1.9
2016-Jun-22 10:33N 33°45' W 118°13'0 0.0
2016-Jun-22 09:33N 33°45' W 118°13'0 0.0
2016-Jun-22 08:33N 33°45' W 118°13'0 0.0
2016-Jun-22 07:33N 33°45' W 118°13'0 0.4
2016-Jun-22 06:33N 33°45' W 118°13'3 3.3
2016-Jun-22 05:31N 33°43' W 118°16'0 0.1
2016-Jun-22 02:25N 33°43' W 118°16'1 0.7
2016-Jun-22 01:33N 33°44' W 118°15'1 0.6
2016-Jun-22 00:09N 33°44' W 118°17'1 1.9
2016-Jun-21 23:27N 33°45' W 118°16'3 2.6
2016-Jun-21 22:24N 33°43' W 118°15'1 1.5
2016-Jun-21 21:29N 33°43' W 118°16'0 0.0
2016-Jun-21 12:32N 33°44' W 118°17'2 0.7
2016-Jun-21 09:33N 33°44' W 118°14'2 2.0
2016-Jun-21 08:33N 33°45' W 118°13'2 2.4
2016-Jun-21 07:33N 33°44' W 118°11'3 1.5
2016-Jun-21 05:33N 33°46' W 118°13'0 0.4
2016-Jun-21 04:33N 33°46' W 118°13'3 2.8
2016-Jun-21 03:33N 33°44' W 118°11'4 4.2
2016-Jun-21 02:33N 33°44' W 118°17'3 2.5
2016-Jun-21 01:33N 33°45' W 118°14'2 2.2
2016-Jun-21 00:33N 33°43' W 118°15'1 0.8
2016-Jun-20 23:34N 33°43' W 118°14'3 2.7
2016-Jun-20 22:33N 33°46' W 118°14'2 2.0
2016-Jun-20 21:33N 33°44' W 118°13'1 0.9
2016-Jun-20 20:33N 33°43' W 118°12'3 3.4
2016-Jun-20 19:34N 33°44' W 118°17'0 0.0
2016-Jun-20 18:34N 33°44' W 118°17'0 0.0
2016-Jun-20 17:34N 33°44' W 118°16'0 0.0
2016-Jun-20 16:33N 33°44' W 118°17'0 0.0
2016-Jun-20 15:33N 33°44' W 118°17'0 0.0
2016-Jun-20 14:34N 33°44' W 118°17'0 0.0
2016-Jun-20 13:32N 33°44' W 118°17'2 1.8
2016-Jun-20 12:33N 33°46' W 118°16'2 1.9
2016-Jun-20 11:33N 33°44' W 118°16'2 1.7
2016-Jun-20 10:33N 33°43' W 118°14'2 1.8
2016-Jun-20 09:32N 33°44' W 118°17'0 0.0
2016-Jun-20 07:31N 33°44' W 118°17'0 0.0
2016-Jun-20 04:13N 33°44' W 118°17'0 0.0
2016-Jun-20 03:31N 33°44' W 118°17'0 0.0
2016-Jun-20 02:15N 33°44' W 118°17'0 0.0
2016-Jun-20 01:29N 33°44' W 118°17'0 0.0
2016-Jun-20 00:33N 33°44' W 118°17'0 0.0
2016-Jun-19 23:31N 33°44' W 118°17'0 0.0
2016-Jun-19 22:33N 33°44' W 118°17'4 4.4
2016-Jun-19 21:33N 33°44' W 118°11'1 1.0
2016-Jun-19 20:33N 33°44' W 118°12'3 0.6
2016-Jun-19 15:10N 33°44' W 118°17'0 0.0
2016-Jun-19 14:27N 33°44' W 118°17'0 0.0
2016-Jun-19 08:29N 33°44' W 118°17'0 0.0
2016-Jun-19 07:31N 33°44' W 118°17'0 0.0
2016-Jun-19 06:33N 33°44' W 118°17'0 0.0
2016-Jun-19 02:31N 33°44' W 118°17'3 2.9
2016-Jun-19 01:23N 33°45' W 118°13'1 0.6
2016-Jun-19 00:33N 33°45' W 118°12'3 3.4
2016-Jun-18 23:34N 33°43' W 118°16'0 0.4
2016-Jun-18 22:33N 33°44' W 118°17'0 0.0
2016-Jun-18 21:33N 33°44' W 118°17'1 1.4
2016-Jun-18 20:33N 33°45' W 118°16'0 0.5
2016-Jun-18 19:33N 33°45' W 118°16'1 0.9
2016-Jun-18 18:33N 33°44' W 118°17'0 0.0
2016-Jun-18 17:33N 33°44' W 118°17'0 0.0
2016-Jun-18 16:33N 33°44' W 118°17'0 0.0
2016-Jun-18 15:33N 33°44' W 118°17'0 0.0
2016-Jun-18 14:31N 33°44' W 118°17'0 0.1
2016-Jun-18 13:33N 33°44' W 118°16'0 0.1
2016-Jun-18 12:21N 33°44' W 118°17'0 0.0
2016-Jun-18 11:16N 33°44' W 118°17'0 0.0
2016-Jun-18 10:33N 33°44' W 118°17'0 0.0
2016-Jun-18 09:30N 33°44' W 118°17'0 0.0
2016-Jun-18 05:33N 33°44' W 118°17'0 0.0
2016-Jun-18 04:33N 33°44' W 118°17'0 0.0
2016-Jun-18 03:33N 33°44' W 118°17'0 0.0
2016-Jun-18 02:33N 33°44' W 118°17'0 0.0
2016-Jun-18 01:04N 33°44' W 118°17'0 0.0
2016-Jun-18 00:29N 33°44' W 118°17'0 0.0
2016-Jun-17 23:12N 33°44' W 118°17'0 0.0
2016-Jun-17 22:33N 33°44' W 118°17'0 0.0
2016-Jun-17 21:33N 33°44' W 118°17'0 0.0
2016-Jun-17 20:33N 33°44' W 118°17'0 0.0
2016-Jun-17 19:34N 33°44' W 118°17'0 0.0
2016-Jun-17 18:33N 33°44' W 118°17'0 0.1
2016-Jun-17 13:33N 33°43' W 118°16'2 2.0
2016-Jun-17 12:32N 33°42' W 118°15'2 0.4
2016-Jun-17 06:10N 33°44' W 118°17'0 0.0
2016-Jun-17 02:31N 33°44' W 118°17'1 0.8
2016-Jun-17 01:33N 33°43' W 118°16'0 0.1
2016-Jun-17 00:33N 33°43' W 118°16'2 1.7
2016-Jun-16 23:33N 33°45' W 118°16'0 0.3
2016-Jun-16 22:33N 33°45' W 118°16'1 0.1
2016-Jun-16 16:27N 33°44' W 118°17'0 0.0
2016-Jun-16 15:12N 33°44' W 118°17'3 1.5
2016-Jun-16 13:30N 33°44' W 118°13'1 1.5
2016-Jun-16 12:33N 33°44' W 118°12'2 1.7
2016-Jun-16 11:33N 33°43' W 118°14'1 0.1
2016-Jun-15 23:12N 33°43' W 118°15'2 3.7
2016-Jun-15 22:33N 33°45' W 118°14'3 3.2
2016-Jun-15 21:33N 33°43' W 118°11'3 3.1
2016-Jun-15 20:31N 33°43' W 118°15'1 0.3
2016-Jun-15 18:33N 33°43' W 118°14'3 2.8
2016-Jun-15 17:33N 33°46' W 118°16'0 0.2
2016-Jun-15 16:33N 33°46' W 118°16'  

Dump ship's entire track history